Time;durP1;ratioP1;P1;durP2;ratioP2;P2;SDS_P1;SDS_P2;PMS_P1;PMS_P2;Temp;Humidity;BMP_temperature;BMP_pressure;BME280_temperature;BME280_humidity;BME280_pressure;Samples;Min_cycle;Max_cycle;Signal;HPM_P1;HPM_P2
2023/07/02 00:00:47;;;;;;;;;;;17.30;99.90;;;;;;5062414;28;19920;-69
2023/07/02 00:03:14;;;;;;;;;;;17.20;99.90;;;;;;5062757;28;19959;-70
2023/07/02 00:05:41;;;;;;;;;;;17.20;99.90;;;;;;5061970;28;19921;-70
2023/07/02 00:08:07;;;;;;;;;;;17.20;99.90;;;;;;5070576;28;19921;-70
2023/07/02 00:10:34;;;;;;;;;;;17.20;99.90;;;;;;5064729;28;19928;-70
2023/07/02 00:13:00;;;;;;;;;;;17.20;99.90;;;;;;5062603;28;19987;-70
2023/07/02 00:15:28;;;;;;;;;;;17.20;99.90;;;;;;5064520;28;19987;-70
2023/07/02 00:17:57;;;;;;;;;;;17.30;99.90;;;;;;5066012;28;20238;-70
2023/07/02 00:20:23;;;;;;;;;;;17.30;99.90;;;;;;5066206;28;20188;-70
2023/07/02 00:22:50;;;;;;;;;;;17.30;99.90;;;;;;5066079;28;19960;-69
2023/07/02 00:25:16;;;;;;;;;;;17.40;99.90;;;;;;5065466;28;19991;-69
2023/07/02 00:27:43;;;;;;;;;;;17.40;99.90;;;;;;5065989;28;19996;-70
2023/07/02 00:30:10;;;;;;;;;;;17.30;99.90;;;;;;5065745;28;20119;-70
2023/07/02 00:32:38;;;;;;;;;;;17.40;99.90;;;;;;5065737;28;20288;-70
2023/07/02 00:35:05;;;;;;;;;;;17.30;99.90;;;;;;5065656;28;19927;-70
2023/07/02 00:37:31;;;;;;;;;;;17.30;99.90;;;;;;5065408;28;20103;-70
2023/07/02 00:39:58;;;;;;;;;;;17.30;99.90;;;;;;5065784;28;19956;-70
2023/07/02 00:42:29;;;;;;;;;;;17.30;99.90;;;;;;5065684;28;19984;-70
2023/07/02 00:45:06;;;;;;;;;;;17.30;99.90;;;;;;5063085;28;19935;-70
2023/07/02 00:47:33;;;;;;;;;;;17.30;99.90;;;;;;5064974;28;19920;-70
2023/07/02 00:50:02;;;;;;;;;;;17.30;99.90;;;;;;5065718;28;19921;-70
2023/07/02 00:52:29;;;;;;;;;;;17.30;99.90;;;;;;5065391;28;19921;-73
2023/07/02 00:54:55;;;;;;;;;;;17.30;99.90;;;;;;5065424;28;19927;-70
2023/07/02 00:57:22;;;;;;;;;;;17.30;99.90;;;;;;5065015;28;19928;-70
2023/07/02 00:59:51;;;;;;;;;;;17.30;99.90;;;;;;5065202;28;19992;-70
2023/07/02 01:02:18;;;;;;;;;;;17.30;99.90;;;;;;5065686;28;20000;-70
2023/07/02 01:04:49;;;;;;;;;;;17.30;99.90;;;;;;5065302;28;19928;-70
2023/07/02 01:07:17;;;;;;;;;;;17.30;99.90;;;;;;5064712;28;19963;-70
2023/07/02 01:09:44;;;;;;;;;;;17.20;99.90;;;;;;5065172;28;20213;-71
2023/07/02 01:12:11;;;;;;;;;;;17.20;99.90;;;;;;5065309;28;19932;-70
2023/07/02 01:14:39;;;;;;;;;;;17.20;99.90;;;;;;5065170;28;19927;-70
2023/07/02 01:17:06;;;;;;;;;;;17.20;99.90;;;;;;5064381;28;19988;-70
2023/07/02 01:19:41;;;;;;;;;;;17.20;99.90;;;;;;5065093;28;19956;-70
2023/07/02 01:22:08;;;;;;;;;;;17.20;99.90;;;;;;5064842;28;19966;-69
2023/07/02 01:24:35;;;;;;;;;;;17.20;99.90;;;;;;5064986;28;19943;-70
2023/07/02 01:27:02;;;;;;;;;;;17.20;99.90;;;;;;5063582;28;19984;-70
2023/07/02 01:29:30;;;;;;;;;;;17.20;99.90;;;;;;5064990;28;19927;-70
2023/07/02 01:31:57;;;;;;;;;;;17.10;99.90;;;;;;5064733;28;19921;-70
2023/07/02 01:34:23;;;;;;;;;;;17.10;99.90;;;;;;5060865;28;19920;-70
2023/07/02 01:36:51;;;;;;;;;;;17.10;99.90;;;;;;5063996;28;19984;-69
2023/07/02 01:39:18;;;;;;;;;;;17.00;99.90;;;;;;5064519;28;19988;-70
2023/07/02 01:41:46;;;;;;;;;;;16.90;99.90;;;;;;5064908;28;19952;-70
2023/07/02 01:44:14;;;;;;;;;;;16.90;99.90;;;;;;5064137;28;20112;-70
2023/07/02 01:46:41;;;;;;;;;;;16.90;99.90;;;;;;5060939;28;19948;-69
2023/07/02 01:49:08;;;;;;;;;;;16.90;99.90;;;;;;5064403;28;19987;-69
2023/07/02 01:51:35;;;;;;;;;;;16.90;99.90;;;;;;5064655;28;19952;-70
2023/07/02 01:54:03;;;;;;;;;;;16.80;99.90;;;;;;5064387;28;19921;-70
2023/07/02 01:56:29;;;;;;;;;;;16.80;99.90;;;;;;5063285;28;20093;-70
2023/07/02 01:58:56;;;;;;;;;;;16.80;99.90;;;;;;5064544;28;19920;-70
2023/07/02 02:01:22;;;;;;;;;;;16.80;99.90;;;;;;5064210;28;19987;-68
2023/07/02 02:03:49;;;;;;;;;;;16.80;99.90;;;;;;5064305;28;19995;-72
2023/07/02 02:06:16;;;;;;;;;;;16.70;99.90;;;;;;5063503;28;20167;-72
2023/07/02 02:08:42;;;;;;;;;;;16.60;99.90;;;;;;5064263;28;19952;-70
2023/07/02 02:11:10;;;;;;;;;;;16.50;99.90;;;;;;5063923;28;19928;-70
2023/07/02 02:13:37;;;;;;;;;;;16.50;99.90;;;;;;5064067;28;19921;-69
2023/07/02 02:16:04;;;;;;;;;;;16.40;99.90;;;;;;5062977;28;19984;-69
2023/07/02 02:18:30;;;;;;;;;;;16.40;99.90;;;;;;5064066;28;19929;-70
2023/07/02 02:20:57;;;;;;;;;;;16.40;99.90;;;;;;5061203;28;20235;-69
2023/07/02 02:23:24;;;;;;;;;;;16.30;99.90;;;;;;5064095;28;19920;-70
2023/07/02 02:25:50;;;;;;;;;;;16.20;99.90;;;;;;5062907;28;20251;-70
2023/07/02 02:28:18;;;;;;;;;;;16.30;99.90;;;;;;5063995;28;19987;-70
2023/07/02 02:30:45;;;;;;;;;;;16.20;99.90;;;;;;5063902;28;19920;-70
2023/07/02 02:33:11;;;;;;;;;;;16.10;99.90;;;;;;5063550;28;19988;-69
2023/07/02 02:35:38;;;;;;;;;;;16.10;99.90;;;;;;5063033;28;19971;-69
2023/07/02 02:38:05;;;;;;;;;;;16.10;99.90;;;;;;5062855;28;19970;-70
2023/07/02 02:40:31;;;;;;;;;;;16.00;99.90;;;;;;5063272;28;19921;-69
2023/07/02 02:42:58;;;;;;;;;;;16.00;99.90;;;;;;5060738;28;19988;-69
2023/07/02 02:45:26;;;;;;;;;;;16.00;99.90;;;;;;5042864;28;20120;-70
2023/07/02 02:47:53;;;;;;;;;;;16.00;99.90;;;;;;5043183;28;20144;-70
2023/07/02 02:50:19;;;;;;;;;;;15.90;99.90;;;;;;5043327;28;19977;-70
2023/07/02 02:52:46;;;;;;;;;;;15.90;99.90;;;;;;5043511;28;19921;-69
2023/07/02 02:55:13;;;;;;;;;;;15.90;99.90;;;;;;5042686;28;19921;-70
2023/07/02 02:57:39;;;;;;;;;;;15.90;99.90;;;;;;5043303;28;19989;-70
2023/07/02 03:00:07;;;;;;;;;;;15.80;99.90;;;;;;5043605;28;20146;-69
2023/07/02 03:02:35;;;;;;;;;;;15.80;99.90;;;;;;5043206;28;19947;-69
2023/07/02 03:05:02;;;;;;;;;;;15.80;99.90;;;;;;5043314;28;19921;-70
2023/07/02 03:07:29;;;;;;;;;;;15.80;99.90;;;;;;5043003;28;19921;-70
2023/07/02 03:09:56;;;;;;;;;;;15.80;99.90;;;;;;5043466;28;19953;-69
2023/07/02 03:12:22;;;;;;;;;;;15.80;99.90;;;;;;5043071;28;20231;-68
2023/07/02 03:14:52;;;;;;;;;;;15.80;99.90;;;;;;5043202;28;19992;-70
2023/07/02 03:17:19;;;;;;;;;;;15.80;99.90;;;;;;5042684;28;19921;-70
2023/07/02 03:19:47;;;;;;;;;;;15.80;99.90;;;;;;5043367;28;19920;-70
2023/07/02 03:22:14;;;;;;;;;;;15.80;99.90;;;;;;5043280;28;19921;-69
2023/07/02 03:24:40;;;;;;;;;;;15.80;99.90;;;;;;5043182;28;19983;-69
2023/07/02 03:27:07;;;;;;;;;;;15.80;99.90;;;;;;5042513;28;19995;-70
2023/07/02 03:29:34;;;;;;;;;;;15.80;99.90;;;;;;5043119;28;19921;-70
2023/07/02 03:32:01;;;;;;;;;;;15.70;99.90;;;;;;5043258;28;19921;-68
2023/07/02 03:34:28;;;;;;;;;;;15.70;99.90;;;;;;5043101;28;19988;-70
2023/07/02 03:36:56;;;;;;;;;;;15.70;99.90;;;;;;5042330;28;20141;-69
2023/07/02 03:39:22;;;;;;;;;;;15.70;99.90;;;;;;5043063;28;19921;-69
2023/07/02 03:41:49;;;;;;;;;;;15.70;99.90;;;;;;5042871;28;19989;-70
2023/07/02 03:44:15;;;;;;;;;;;15.70;99.90;;;;;;5058881;28;20284;-70
2023/07/02 03:46:42;;;;;;;;;;;15.80;99.90;;;;;;5061979;28;19952;-70
2023/07/02 03:49:09;;;;;;;;;;;15.70;99.90;;;;;;5063545;28;19921;-70
2023/07/02 03:51:35;;;;;;;;;;;15.80;99.90;;;;;;5066625;28;20149;-70
2023/07/02 03:54:03;;;;;;;;;;;15.80;99.90;;;;;;5066699;28;19921;-70
2023/07/02 03:56:30;;;;;;;;;;;15.80;99.90;;;;;;5065971;28;19987;-70
2023/07/02 03:58:57;;;;;;;;;;;15.80;99.90;;;;;;5066511;28;19920;-69
2023/07/02 04:01:23;;;;;;;;;;;15.80;99.90;;;;;;5066177;28;19995;-70
2023/07/02 04:03:51;;;;;;;;;;;15.80;99.90;;;;;;5066665;28;19920;-70
2023/07/02 04:06:17;;;;;;;;;;;15.90;99.90;;;;;;5066742;28;19984;-70
2023/07/02 04:08:44;;;;;;;;;;;15.90;99.90;;;;;;5086143;28;19991;-70
2023/07/02 04:11:12;;;;;;;;;;;15.90;99.90;;;;;;5086472;28;19920;-70
2023/07/02 04:13:40;;;;;;;;;;;16.00;99.90;;;;;;5086122;28;19921;-70
2023/07/02 04:16:06;;;;;;;;;;;16.00;99.90;;;;;;5085536;28;19986;-69
2023/07/02 04:18:33;;;;;;;;;;;16.00;99.90;;;;;;5086418;28;19920;-69
2023/07/02 04:21:00;;;;;;;;;;;16.00;99.90;;;;;;5086351;28;20164;-70
2023/07/02 04:23:26;;;;;;;;;;;16.00;99.90;;;;;;5086209;28;19951;-69
2023/07/02 04:25:53;;;;;;;;;;;16.10;99.90;;;;;;5085634;28;20170;-70
2023/07/02 04:28:21;;;;;;;;;;;16.10;99.90;;;;;;5086349;28;19987;-69
2023/07/02 04:30:49;;;;;;;;;;;16.10;99.90;;;;;;5086028;28;19927;-70
2023/07/02 04:33:16;;;;;;;;;;;16.10;99.90;;;;;;5085845;28;20266;-70
2023/07/02 04:35:43;;;;;;;;;;;16.20;99.90;;;;;;5085316;28;19983;-68
2023/07/02 04:38:09;;;;;;;;;;;16.20;99.90;;;;;;5085548;28;19920;-70
2023/07/02 04:40:36;;;;;;;;;;;16.20;99.90;;;;;;5085888;28;19956;-70
2023/07/02 04:43:03;;;;;;;;;;;16.20;99.90;;;;;;5086070;28;19920;-70
2023/07/02 04:45:36;;;;;;;;;;;16.20;99.90;;;;;;5084946;28;19967;-70
2023/07/02 04:48:02;;;;;;;;;;;16.20;99.90;;;;;;5085802;28;19920;-70
2023/07/02 04:50:29;;;;;;;;;;;16.20;99.90;;;;;;5085394;28;19983;-69
2023/07/02 04:52:56;;;;;;;;;;;16.20;99.90;;;;;;5085791;28;19956;-70
2023/07/02 04:55:23;;;;;;;;;;;16.20;99.90;;;;;;5084882;28;19929;-70
2023/07/02 04:57:49;;;;;;;;;;;16.10;99.90;;;;;;5085166;28;20234;-70
2023/07/02 05:00:16;;;;;;;;;;;16.20;99.90;;;;;;5085190;28;19959;-70
2023/07/02 05:02:44;;;;;;;;;;;16.20;99.90;;;;;;5084738;28;20398;-70
2023/07/02 05:05:11;;;;;;;;;;;16.20;99.90;;;;;;5084662;28;19955;-70
2023/07/02 05:07:37;;;;;;;;;;;16.20;99.90;;;;;;5085388;28;19983;-70
2023/07/02 05:10:04;;;;;;;;;;;16.20;99.90;;;;;;5085459;28;19958;-70
2023/07/02 05:12:31;;;;;;;;;;;16.20;99.90;;;;;;5085527;28;19983;-70
2023/07/02 05:14:58;;;;;;;;;;;16.20;99.90;;;;;;5081017;28;19960;-70
2023/07/02 05:17:24;;;;;;;;;;;16.20;99.90;;;;;;5064750;28;19984;-69
2023/07/02 05:19:52;;;;;;;;;;;16.20;99.90;;;;;;5065158;28;19921;-70
2023/07/02 05:22:19;;;;;;;;;;;16.20;99.90;;;;;;5064912;28;19921;-70
2023/07/02 05:24:46;;;;;;;;;;;16.20;99.90;;;;;;5065070;28;19993;-68
2023/07/02 05:27:12;;;;;;;;;;;16.30;99.90;;;;;;5064349;28;20086;-70
2023/07/02 05:29:39;;;;;;;;;;;16.30;99.90;;;;;;5065038;28;19921;-70
2023/07/02 05:32:06;;;;;;;;;;;16.30;99.90;;;;;;5064831;28;19987;-70
2023/07/02 05:34:32;;;;;;;;;;;16.40;99.90;;;;;;5064980;28;19927;-69
2023/07/02 05:37:00;;;;;;;;;;;16.30;99.90;;;;;;5063786;28;20288;-70
2023/07/02 05:39:27;;;;;;;;;;;16.40;99.90;;;;;;5064607;28;19987;-70
2023/07/02 05:41:54;;;;;;;;;;;16.40;99.90;;;;;;5064835;28;19956;-70
2023/07/02 05:44:20;;;;;;;;;;;16.50;99.90;;;;;;5064769;28;19959;-69
2023/07/02 05:46:47;;;;;;;;;;;16.40;99.90;;;;;;5063341;28;21723;-70
2023/07/02 05:49:16;;;;;;;;;;;16.50;99.90;;;;;;5061935;28;19984;-70
2023/07/02 05:51:42;;;;;;;;;;;16.50;99.90;;;;;;5064591;28;19928;-70
2023/07/02 05:54:10;;;;;;;;;;;16.50;99.90;;;;;;5064595;28;19983;-70
2023/07/02 05:56:37;;;;;;;;;;;16.50;99.90;;;;;;5063567;28;20232;-71
2023/07/02 05:59:05;;;;;;;;;;;16.50;99.90;;;;;;5062109;28;19991;-70
2023/07/02 06:01:32;;;;;;;;;;;16.60;99.90;;;;;;5061864;28;19921;-70
2023/07/02 06:03:59;;;;;;;;;;;16.60;99.90;;;;;;5064014;28;19958;-70
2023/07/02 06:06:25;;;;;;;;;;;16.70;99.90;;;;;;5043460;28;19921;-70
2023/07/02 06:08:52;;;;;;;;;;;16.70;99.90;;;;;;5044398;28;19921;-70
2023/07/02 06:11:20;;;;;;;;;;;16.80;99.90;;;;;;5044326;28;19984;-71
2023/07/02 06:13:47;;;;;;;;;;;16.90;99.90;;;;;;5044018;28;19992;-70
2023/07/02 06:16:13;;;;;;;;;;;17.00;99.90;;;;;;5043297;28;19956;-70
2023/07/02 06:18:41;;;;;;;;;;;17.00;99.90;;;;;;5044121;28;20164;-71
2023/07/02 06:21:07;;;;;;;;;;;17.10;99.90;;;;;;5047849;28;19921;-70
2023/07/02 06:23:40;;;;;;;;;;;17.00;99.90;;;;;;5063972;28;19927;-72
2023/07/02 06:26:07;;;;;;;;;;;17.20;99.90;;;;;;5063204;28;20159;-70
2023/07/02 06:28:34;;;;;;;;;;;17.20;99.90;;;;;;5063728;28;19921;-71
2023/07/02 06:31:01;;;;;;;;;;;17.20;99.90;;;;;;5063970;28;19921;-70
2023/07/02 06:33:28;;;;;;;;;;;17.20;99.90;;;;;;5063760;28;19924;-70
2023/07/02 06:35:54;;;;;;;;;;;17.20;99.90;;;;;;5063316;28;19964;-71
2023/07/02 06:38:21;;;;;;;;;;;17.30;99.90;;;;;;5064198;28;19943;-70
2023/07/02 06:40:48;;;;;;;;;;;17.30;99.90;;;;;;5063757;28;19963;-69
2023/07/02 06:43:14;;;;;;;;;;;17.30;99.90;;;;;;5063750;28;19927;-69
2023/07/02 06:45:42;;;;;;;;;;;17.40;99.90;;;;;;5062684;28;19959;-68
2023/07/02 06:48:09;;;;;;;;;;;17.40;99.90;;;;;;5063504;28;19921;-68
2023/07/02 06:50:36;;;;;;;;;;;17.40;99.90;;;;;;5063541;28;19979;-69
2023/07/02 06:53:02;;;;;;;;;;;17.40;99.90;;;;;;5063506;28;19927;-68
2023/07/02 06:55:29;;;;;;;;;;;17.40;99.90;;;;;;5062894;28;19987;-70
2023/07/02 06:57:55;;;;;;;;;;;17.40;99.90;;;;;;5060242;28;20236;-70
2023/07/02 07:00:22;;;;;;;;;;;17.30;99.90;;;;;;5063336;28;19921;-69
2023/07/02 07:02:50;;;;;;;;;;;17.30;99.90;;;;;;5063141;28;20234;-68
2023/07/02 07:05:17;;;;;;;;;;;17.30;99.90;;;;;;5062327;28;19928;-69
2023/07/02 07:07:43;;;;;;;;;;;17.30;99.90;;;;;;5046787;28;20164;-68
2023/07/02 07:10:10;;;;;;;;;;;17.50;99.90;;;;;;5050957;28;20335;-68
2023/07/02 07:12:37;;;;;;;;;;;17.50;99.90;;;;;;5054815;28;19984;-68
2023/07/02 07:15:04;;;;;;;;;;;17.60;99.90;;;;;;5056594;28;19928;-67
2023/07/02 07:17:31;;;;;;;;;;;17.60;99.90;;;;;;5059275;28;19943;-67
2023/07/02 07:19:59;;;;;;;;;;;17.70;99.90;;;;;;5062764;28;19984;-68
2023/07/02 07:22:25;;;;;;;;;;;17.80;99.90;;;;;;5060172;28;20112;-68
2023/07/02 07:24:52;;;;;;;;;;;17.90;99.90;;;;;;5061161;28;19988;-68
2023/07/02 07:27:25;;;;;;;;;;;17.90;99.90;;;;;;5063919;28;19980;-68
2023/07/02 07:29:51;;;;;;;;;;;18.00;99.90;;;;;;5066705;28;19920;-68
2023/07/02 07:32:18;;;;;;;;;;;18.10;99.90;;;;;;5066875;28;20237;-69
2023/07/02 07:34:44;;;;;;;;;;;18.20;99.90;;;;;;5063672;28;19971;-68
2023/07/02 07:37:12;;;;;;;;;;;18.20;99.90;;;;;;5065907;28;19956;-68
2023/07/02 07:39:39;;;;;;;;;;;18.20;99.90;;;;;;5066564;28;20112;-68
2023/07/02 07:42:06;;;;;;;;;;;18.20;99.90;;;;;;5066882;28;19983;-67
2023/07/02 07:44:33;;;;;;;;;;;18.30;99.90;;;;;;5066500;28;19921;-69
2023/07/02 07:46:59;;;;;;;;;;;18.30;99.90;;;;;;5065665;28;19920;-67
2023/07/02 07:49:26;;;;;;;;;;;18.40;99.90;;;;;;5066691;28;19983;-67
2023/07/02 07:51:53;;;;;;;;;;;18.40;99.90;;;;;;5065995;28;19985;-68
2023/07/02 07:54:21;;;;;;;;;;;18.30;99.90;;;;;;5066218;28;19921;-68
2023/07/02 07:56:47;;;;;;;;;;;18.30;99.90;;;;;;5065044;28;19920;-69
2023/07/02 07:59:14;;;;;;;;;;;18.20;99.90;;;;;;5066289;28;20232;-66
2023/07/02 08:01:41;;;;;;;;;;;18.20;99.90;;;;;;5055639;28;19921;-68
2023/07/02 08:04:08;;;;;;;;;;;18.20;99.90;;;;;;5066552;28;19921;-68
2023/07/02 08:06:34;;;;;;;;;;;18.40;99.90;;;;;;5065453;28;19935;-67
2023/07/02 08:09:01;;;;;;;;;;;18.30;99.90;;;;;;5066471;28;20161;-67
2023/07/02 08:11:29;;;;;;;;;;;18.30;99.90;;;;;;5066453;28;19983;-68
2023/07/02 08:13:55;;;;;;;;;;;18.30;99.90;;;;;;5066532;28;19988;-68
2023/07/02 08:16:22;;;;;;;;;;;18.40;99.90;;;;;;5065351;28;20188;-68
2023/07/02 08:18:49;;;;;;;;;;;18.40;99.90;;;;;;5066305;28;19930;-68
2023/07/02 08:21:16;;;;;;;;;;;18.40;99.90;;;;;;5066159;28;19921;-67
2023/07/02 08:23:43;;;;;;;;;;;18.50;99.90;;;;;;5065537;28;19921;-68
2023/07/02 08:26:10;;;;;;;;;;;18.60;99.90;;;;;;5064619;28;19921;-67
2023/07/02 08:28:39;;;;;;;;;;;18.60;99.90;;;;;;5066048;28;20208;-68
2023/07/02 08:31:06;;;;;;;;;;;18.60;99.90;;;;;;5065954;28;19927;-67
2023/07/02 08:33:33;;;;;;;;;;;18.80;99.90;;;;;;5066038;28;20139;-68
2023/07/02 08:36:00;;;;;;;;;;;18.80;99.90;;;;;;5065089;28;19927;-68
2023/07/02 08:38:27;;;;;;;;;;;18.90;99.90;;;;;;5065798;28;19959;-68
2023/07/02 08:40:53;;;;;;;;;;;19.10;99.90;;;;;;5065975;28;20471;-68
2023/07/02 08:43:20;;;;;;;;;;;19.20;99.90;;;;;;5065730;28;20120;-68
2023/07/02 08:45:48;;;;;;;;;;;19.30;99.90;;;;;;5065049;28;19927;-68
2023/07/02 08:48:15;;;;;;;;;;;19.30;99.90;;;;;;5065739;28;19921;-68
2023/07/02 08:50:43;;;;;;;;;;;19.40;99.90;;;;;;5065844;28;19921;-68
2023/07/02 08:53:09;;;;;;;;;;;19.50;99.90;;;;;;5065583;28;19929;-68
2023/07/02 08:55:36;;;;;;;;;;;19.50;99.90;;;;;;5064574;28;19921;-68
2023/07/02 08:58:03;;;;;;;;;;;19.60;99.90;;;;;;5065627;28;20163;-68
2023/07/02 09:00:31;;;;;;;;;;;19.70;99.90;;;;;;5065493;28;19920;-67
2023/07/02 09:02:58;;;;;;;;;;;19.80;99.90;;;;;;5065574;28;19921;-68
2023/07/02 09:05:25;;;;;;;;;;;19.90;99.90;;;;;;5064911;28;20153;-68
2023/07/02 09:07:52;;;;;;;;;;;19.90;99.90;;;;;;5065389;28;19983;-68
2023/07/02 09:10:28;;;;;;;;;;;20.00;99.90;;;;;;5065292;28;20204;-68
2023/07/02 09:13:05;;;;;;;;;;;20.10;99.90;;;;;;5065354;28;19928;-67
2023/07/02 09:15:36;;;;;;;;;;;20.10;99.90;;;;;;5064591;28;19921;-68
2023/07/02 09:18:14;;;;;;;;;;;20.00;99.90;;;;;;5065313;28;19927;-67
2023/07/02 09:20:41;;;;;;;;;;;20.00;99.90;;;;;;5065340;28;19927;-68
2023/07/02 09:23:08;;;;;;;;;;;20.20;99.90;;;;;;5065058;28;19955;-68
2023/07/02 09:25:35;;;;;;;;;;;20.30;99.90;;;;;;5055120;28;19948;-68
2023/07/02 09:28:01;;;;;;;;;;;20.50;99.90;;;;;;5058723;28;20017;-68
2023/07/02 09:30:28;;;;;;;;;;;20.50;99.90;;;;;;5064877;28;19959;-68
2023/07/02 09:32:56;;;;;;;;;;;20.60;99.90;;;;;;5058561;28;19955;-68
2023/07/02 09:35:24;;;;;;;;;;;20.70;99.90;;;;;;5061437;28;20243;-68
2023/07/02 09:37:51;;;;;;;;;;;20.80;99.90;;;;;;5054759;28;19927;-68
2023/07/02 09:40:18;;;;;;;;;;;20.90;99.90;;;;;;5064517;28;19924;-68
2023/07/02 09:42:52;;;;;;;;;;;21.00;99.90;;;;;;5064666;28;19920;-68
2023/07/02 09:45:19;;;;;;;;;;;21.00;99.90;;;;;;5063430;28;19920;-69
2023/07/02 09:47:50;;;;;;;;;;;21.00;99.90;;;;;;5055117;28;20084;-68
2023/07/02 09:50:19;;;;;;;;;;;21.00;99.90;;;;;;5044346;28;19928;-68
2023/07/02 09:52:47;;;;;;;;;;;21.00;99.90;;;;;;5046708;28;20868;-68
2023/07/02 09:55:14;;;;;;;;;;;21.00;99.90;;;;;;5062829;28;19921;-68
2023/07/02 09:57:41;;;;;;;;;;;21.00;99.90;;;;;;5064077;28;19921;-68
2023/07/02 10:00:08;;;;;;;;;;;21.10;99.90;;;;;;5064369;28;19927;-68
2023/07/02 10:02:38;;;;;;;;;;;21.20;99.90;;;;;;5052026;28;19935;-68
2023/07/02 10:05:04;;;;;;;;;;;21.30;99.90;;;;;;5051590;28;20124;-67
2023/07/02 10:07:32;;;;;;;;;;;21.40;99.90;;;;;;5054891;28;19928;-70
2023/07/02 10:10:00;;;;;;;;;;;21.40;99.90;;;;;;5064104;28;19928;-68
2023/07/02 10:12:28;;;;;;;;;;;21.40;99.90;;;;;;5061176;28;20508;-68
2023/07/02 10:14:55;;;;;;;;;;;21.40;99.90;;;;;;5063877;28;19924;-69
2023/07/02 10:17:27;;;;;;;;;;;21.60;99.90;;;;;;5060682;28;19943;-68
2023/07/02 10:19:54;;;;;;;;;;;21.60;99.90;;;;;;5063843;28;19927;-69
2023/07/02 10:22:21;;;;;;;;;;;21.60;99.90;;;;;;5064168;28;20137;-68
2023/07/02 10:24:54;;;;;;;;;;;21.60;99.90;;;;;;5063768;28;19921;-68
2023/07/02 10:27:34;;;;;;;;;;;21.60;99.90;;;;;;5063379;28;19925;-68
2023/07/02 10:30:00;;;;;;;;;;;21.40;99.90;;;;;;5063817;28;19921;-68
2023/07/02 10:32:28;;;;;;;;;;;21.40;99.90;;;;;;5053543;28;19927;-68
2023/07/02 10:34:55;;;;;;;;;;;21.50;99.90;;;;;;5047818;28;19921;-68
2023/07/02 10:37:24;;;;;;;;;;;21.60;99.90;;;;;;5060263;28;19921;-68
2023/07/02 10:39:51;;;;;;;;;;;21.70;99.90;;;;;;5063779;28;19927;-68
2023/07/02 10:42:18;;;;;;;;;;;21.80;99.90;;;;;;5063561;28;19966;-71
2023/07/02 10:44:50;;;;;;;;;;;21.90;99.90;;;;;;5060971;28;19993;-68
2023/07/02 10:47:17;;;;;;;;;;;22.10;99.90;;;;;;5062714;28;20116;-68
2023/07/02 10:49:43;;;;;;;;;;;22.30;99.90;;;;;;5063656;28;19921;-68
2023/07/02 10:52:10;;;;;;;;;;;22.30;99.90;;;;;;5063593;28;19992;-68
2023/07/02 10:54:40;;;;;;;;;;;22.20;99.90;;;;;;5063634;28;20228;-68
2023/07/02 10:57:07;;;;;;;;;;;22.30;99.90;;;;;;5062764;28;19921;-69
2023/07/02 10:59:34;;;;;;;;;;;22.40;99.90;;;;;;5062773;28;19921;-68
2023/07/02 11:02:03;;;;;;;;;;;22.50;99.90;;;;;;5056700;28;19957;-68
2023/07/02 11:04:30;;;;;;;;;;;22.50;99.90;;;;;;5049278;28;19987;-69
2023/07/02 11:06:57;;;;;;;;;;;22.20;99.90;;;;;;5062383;28;19921;-69
2023/07/02 11:09:24;;;;;;;;;;;22.00;99.90;;;;;;5063227;28;20288;-68
2023/07/02 11:11:52;;;;;;;;;;;22.00;99.90;;;;;;5063383;28;20123;-69
2023/07/02 11:14:27;;;;;;;;;;;22.00;99.90;;;;;;5063070;28;19958;-69
2023/07/02 11:16:55;;;;;;;;;;;22.00;99.90;;;;;;5062536;28;19921;-68
2023/07/02 11:19:23;;;;;;;;;;;22.20;99.90;;;;;;5063397;28;19921;-67
2023/07/02 11:21:53;;;;;;;;;;;22.40;99.90;;;;;;5063283;28;19921;-68
2023/07/02 11:24:27;;;;;;;;;;;22.60;99.90;;;;;;5063283;28;19928;-68
2023/07/02 11:26:55;;;;;;;;;;;22.70;99.90;;;;;;5059922;28;20143;-68
2023/07/02 11:29:22;;;;;;;;;;;22.80;99.90;;;;;;5063321;28;20171;-69
2023/07/02 11:31:49;;;;;;;;;;;23.00;99.90;;;;;;5062591;28;21140;-68
2023/07/02 11:34:16;;;;;;;;;;;23.00;99.90;;;;;;5062873;28;19952;-68
2023/07/02 11:36:44;;;;;;;;;;;23.00;99.90;;;;;;5062235;28;19920;-68
2023/07/02 11:39:12;;;;;;;;;;;23.10;99.90;;;;;;5063122;28;19921;-68
2023/07/02 11:41:38;;;;;;;;;;;23.30;99.90;;;;;;5063099;28;19920;-68
2023/07/02 11:44:05;;;;;;;;;;;23.60;99.90;;;;;;5060396;28;20173;-68
2023/07/02 11:46:32;;;;;;;;;;;23.80;99.90;;;;;;5062037;28;19984;-68
2023/07/02 11:48:59;;;;;;;;;;;23.70;99.90;;;;;;5058234;28;19921;-68
2023/07/02 11:51:29;;;;;;;;;;;23.70;99.90;;;;;;5060279;28;19920;-68
2023/07/02 11:53:57;;;;;;;;;;;23.60;99.90;;;;;;5062900;28;19959;-68
2023/07/02 11:56:24;;;;;;;;;;;23.50;99.90;;;;;;5061701;28;19927;-68
2023/07/02 11:58:51;;;;;;;;;;;23.30;99.90;;;;;;5062275;28;19920;-68
2023/07/02 12:01:17;;;;;;;;;;;23.30;99.90;;;;;;5063074;28;19984;-68
2023/07/02 12:03:44;;;;;;;;;;;23.50;99.90;;;;;;5062619;28;20251;-68
2023/07/02 12:06:11;;;;;;;;;;;23.60;99.90;;;;;;5062065;28;19921;-70
2023/07/02 12:08:41;;;;;;;;;;;23.50;99.90;;;;;;5060028;28;20004;-68
2023/07/02 12:11:09;;;;;;;;;;;23.20;99.90;;;;;;5064068;28;19921;-67
2023/07/02 12:13:36;;;;;;;;;;;23.10;99.90;;;;;;5061653;28;19983;-67
2023/07/02 12:16:02;;;;;;;;;;;23.20;99.90;;;;;;5052506;28;19943;-67
2023/07/02 12:18:29;;;;;;;;;;;23.40;99.90;;;;;;5046299;28;19929;-66
2023/07/02 12:20:56;;;;;;;;;;;23.70;99.90;;;;;;5046263;28;20267;-68
2023/07/02 12:23:22;;;;;;;;;;;23.60;99.90;;;;;;5066300;28;19920;-67
2023/07/02 12:25:49;;;;;;;;;;;23.60;99.90;;;;;;5060984;28;19928;-68
2023/07/02 12:28:17;;;;;;;;;;;23.20;99.90;;;;;;5052508;28;19927;-68
2023/07/02 12:30:44;;;;;;;;;;;23.00;99.90;;;;;;5048670;28;19932;-66
2023/07/02 12:33:10;;;;;;;;;;;23.10;99.90;;;;;;5065468;28;20233;-68
2023/07/02 12:35:37;;;;;;;;;;;23.30;99.90;;;;;;5047060;28;19951;-68
2023/07/02 12:38:07;;;;;;;;;;;23.60;99.90;;;;;;5065607;28;20105;-68
2023/07/02 12:40:33;;;;;;;;;;;23.60;99.90;;;;;;5065598;28;19928;-69
2023/07/02 12:43:00;;;;;;;;;;;23.60;99.90;;;;;;5045884;28;19988;-68
2023/07/02 12:45:28;;;;;;;;;;;23.50;99.90;;;;;;5045013;28;19992;-68
2023/07/02 12:47:55;;;;;;;;;;;23.40;99.90;;;;;;5042685;28;19948;-67
2023/07/02 12:50:21;;;;;;;;;;;23.50;99.90;;;;;;5062702;28;19927;-67
2023/07/02 12:52:48;;;;;;;;;;;23.70;99.70;;;;;;5058090;28;19953;-68
2023/07/02 12:55:15;;;;;;;;;;;23.80;99.30;;;;;;5046642;28;19930;-68
2023/07/02 12:57:41;;;;;;;;;;;24.00;99.90;;;;;;5049532;28;19996;-68
2023/07/02 13:00:09;;;;;;;;;;;24.30;99.00;;;;;;5059920;28;19928;-68
2023/07/02 13:02:37;;;;;;;;;;;24.30;98.50;;;;;;5047409;28;20421;-68
2023/07/02 13:05:04;;;;;;;;;;;24.50;97.90;;;;;;5044898;28;19927;-68
2023/07/02 13:07:31;;;;;;;;;;;24.50;98.40;;;;;;5042330;28;20116;-68
2023/07/02 13:09:57;;;;;;;;;;;24.50;98.50;;;;;;5053814;28;20124;-68
2023/07/02 13:12:24;;;;;;;;;;;24.50;98.40;;;;;;5064689;28;20173;-68
2023/07/02 13:14:50;;;;;;;;;;;24.40;99.10;;;;;;5050247;28;19952;-68
2023/07/02 13:17:17;;;;;;;;;;;24.50;98.90;;;;;;5062285;28;19960;-68
2023/07/02 13:19:45;;;;;;;;;;;24.60;97.90;;;;;;5047469;28;20280;-68
2023/07/02 13:22:12;;;;;;;;;;;24.60;97.70;;;;;;5044057;28;19922;-68
2023/07/02 13:24:40;;;;;;;;;;;24.60;98.20;;;;;;5044820;28;19953;-69
2023/07/02 13:27:09;;;;;;;;;;;24.60;97.50;;;;;;5052975;28;19928;-69
2023/07/02 13:29:36;;;;;;;;;;;24.70;97.20;;;;;;5044467;28;19920;-68
2023/07/02 13:32:03;;;;;;;;;;;24.80;97.70;;;;;;5060004;28;19967;-68
2023/07/02 13:34:29;;;;;;;;;;;24.90;97.40;;;;;;5064604;28;19921;-69
2023/07/02 13:36:57;;;;;;;;;;;24.70;97.20;;;;;;5063487;28;19991;-68
2023/07/02 13:39:24;;;;;;;;;;;24.30;97.30;;;;;;5064463;28;19921;-68
2023/07/02 13:41:51;;;;;;;;;;;24.40;97.30;;;;;;5064492;28;19928;-69
2023/07/02 13:44:17;;;;;;;;;;;24.50;97.40;;;;;;5064388;28;20263;-69
2023/07/02 13:46:44;;;;;;;;;;;24.80;98.40;;;;;;5063399;28;19992;-68
2023/07/02 13:49:11;;;;;;;;;;;25.00;97.60;;;;;;5061352;28;19995;-69
2023/07/02 13:51:38;;;;;;;;;;;25.30;97.50;;;;;;5064385;28;19992;-68
2023/07/02 13:54:06;;;;;;;;;;;25.20;97.70;;;;;;5052015;28;19956;-68
2023/07/02 13:56:32;;;;;;;;;;;25.20;97.20;;;;;;5050235;28;19921;-68
2023/07/02 13:59:01;;;;;;;;;;;24.80;96.70;;;;;;5064078;28;20000;-69
2023/07/02 14:01:27;;;;;;;;;;;24.30;97.70;;;;;;5058561;28;19921;-69
2023/07/02 14:03:55;;;;;;;;;;;24.20;97.80;;;;;;5041954;28;20090;-69
2023/07/02 14:06:22;;;;;;;;;;;24.40;98.50;;;;;;5055624;28;19936;-69
2023/07/02 14:08:48;;;;;;;;;;;24.70;97.50;;;;;;5052503;28;20139;-68
2023/07/02 14:11:15;;;;;;;;;;;24.80;96.80;;;;;;5043885;28;19993;-68
2023/07/02 14:13:42;;;;;;;;;;;24.70;96.70;;;;;;5062636;28;19921;-69
2023/07/02 14:16:10;;;;;;;;;;;24.60;97.10;;;;;;5062960;28;19988;-68